createdAt,value
2023-04-10T00:01:28.027Z,100308.68
2023-04-10T00:04:03.371Z,100302.73
2023-04-10T00:06:35.155Z,100301.48
2023-04-10T00:09:03.473Z,100304.58
2023-04-10T00:11:32.511Z,100301.92
2023-04-10T00:14:01.870Z,100300.67
2023-04-10T00:16:32.417Z,100301.58
2023-04-10T00:19:01.173Z,100302.81
2023-04-10T00:21:29.804Z,100298.69
2023-04-10T00:24:01.522Z,100301.61
2023-04-10T00:26:31.237Z,100299.42
2023-04-10T00:29:00.737Z,100302.61
2023-04-10T00:31:38.112Z,100302.41
2023-04-10T00:34:09.111Z,100298.20
2023-04-10T00:36:38.871Z,100299.36
2023-04-10T00:39:07.808Z,100300.52
2023-04-10T00:41:40.398Z,100302.23
2023-04-10T00:44:08.939Z,100304.02
2023-04-10T00:46:37.957Z,100305.46
2023-04-10T00:49:06.591Z,100304.42
2023-04-10T00:51:35.642Z,100308.98
2023-04-10T00:54:10.762Z,100306.30
2023-04-10T00:56:39.076Z,100306.64
2023-04-10T00:59:07.473Z,100307.19
2023-04-10T01:01:38.379Z,100307.66
2023-04-10T01:04:13.387Z,100305.52
2023-04-10T01:07:00.710Z,100305.42
2023-04-10T01:09:36.746Z,100302.09
2023-04-10T01:12:13.111Z,100302.28
2023-04-10T01:15:02.498Z,100306.58
2023-04-10T01:17:52.817Z,100307.36
2023-04-10T01:20:25.804Z,100304.37
2023-04-10T01:23:31.731Z,100301.35
2023-04-10T01:26:01.391Z,100309.05
2023-04-10T01:28:31.827Z,100307.61
2023-04-10T01:31:00.565Z,100306.80
2023-04-10T01:33:33.246Z,100308.61
2023-04-10T01:36:03.368Z,100304.42
2023-04-10T01:38:34.324Z,100301.77
2023-04-10T01:41:02.592Z,100298.91
2023-04-10T01:43:32.256Z,100299.83
2023-04-10T01:46:02.188Z,100300.50
2023-04-10T01:48:30.812Z,100302.54
2023-04-10T01:51:00.319Z,100301.21
2023-04-10T01:53:28.559Z,100307.96
2023-04-10T01:55:56.813Z,100306.53
2023-04-10T01:58:25.579Z,100309.36
2023-04-10T02:00:58.232Z,100308.35
2023-04-10T02:03:28.085Z,100307.42
2023-04-10T02:06:09.143Z,100309.43
2023-04-10T02:09:17.633Z,100307.63
2023-04-10T02:11:52.268Z,100311.06
2023-04-10T02:14:25.113Z,100313.29
2023-04-10T02:16:54.718Z,100312.55
2023-04-10T02:19:23.973Z,100309.20
2023-04-10T02:21:54.348Z,100309.53
2023-04-10T02:24:22.824Z,100309.26
2023-04-10T02:26:51.950Z,100309.57
2023-04-10T02:29:22.130Z,100314.80
2023-04-10T02:31:50.910Z,100314.76
2023-04-10T02:34:19.593Z,100313.40
2023-04-10T02:36:49.018Z,100310.52
2023-04-10T02:39:17.217Z,100313.46
2023-04-10T02:41:52.875Z,100310.71
2023-04-10T02:44:21.794Z,100311.99
2023-04-10T02:46:49.989Z,100314.52
2023-04-10T02:49:18.267Z,100315.30
2023-04-10T02:51:46.634Z,100317.77
2023-04-10T02:54:15.775Z,100320.18
2023-04-10T02:56:44.265Z,100322.91
2023-04-10T02:59:13.485Z,100320.19
2023-04-10T03:01:42.801Z,100315.33
2023-04-10T03:04:11.179Z,100322.09
2023-04-10T03:06:41.057Z,100325.62
2023-04-10T03:09:09.319Z,100322.14
2023-04-10T03:11:37.601Z,100324.74
2023-04-10T03:14:11.716Z,100321.75
2023-04-10T03:16:40.033Z,100325.36
2023-04-10T03:19:08.251Z,100322.27
2023-04-10T03:21:36.628Z,100323.55
2023-04-10T03:24:06.254Z,100322.73
2023-04-10T03:26:34.464Z,100327.20
2023-04-10T03:29:03.782Z,100322.30
2023-04-10T03:31:32.244Z,100323.45
2023-04-10T03:34:01.279Z,100324.96
2023-04-10T03:36:29.792Z,100322.68
2023-04-10T03:38:58.019Z,100330.20
2023-04-10T03:41:27.409Z,100327.90
2023-04-10T03:43:56.382Z,100327.83
2023-04-10T03:46:25.178Z,100327.77
2023-04-10T03:48:54.359Z,100330.59
2023-04-10T03:51:24.815Z,100326.23
2023-04-10T03:53:53.763Z,100328.45
2023-04-10T03:56:22.737Z,100329.20
2023-04-10T03:58:55.508Z,100332.64
2023-04-10T04:01:24.795Z,100334.73
2023-04-10T04:04:00.747Z,100335.45
2023-04-10T04:06:51.559Z,100338.17
2023-04-10T04:09:45.904Z,100341.84
2023-04-10T04:12:22.134Z,100340.46
2023-04-10T04:15:04.740Z,100344.69
2023-04-10T04:17:54.455Z,100347.57
2023-04-10T04:20:41.690Z,100352.39
2023-04-10T04:23:31.768Z,100354.41
2023-04-10T04:26:25.195Z,100354.92
2023-04-10T04:29:15.754Z,100355.15
2023-04-10T04:32:16.801Z,100356.23
2023-04-10T04:35:03.667Z,100361.33
2023-04-10T04:37:51.034Z,100360.56
2023-04-10T04:40:48.832Z,100360.34
2023-04-10T04:43:41.652Z,100358.77
2023-04-10T04:46:28.119Z,100368.35
2023-04-10T04:49:28.978Z,100365.98
2023-04-10T04:52:16.544Z,100368.66
2023-04-10T04:54:49.369Z,100373.45
2023-04-10T04:57:47.735Z,100370.91
2023-04-10T05:00:25.541Z,100377.13
2023-04-10T05:03:24.428Z,100382.76
2023-04-10T05:06:14.664Z,100383.13
2023-04-10T05:09:12.214Z,100389.28
2023-04-10T05:11:59.113Z,100393.13
2023-04-10T05:14:46.417Z,100393.11
2023-04-10T05:17:39.663Z,100396.52
2023-04-10T05:20:37.124Z,100397.75
2023-04-10T05:23:43.885Z,100406.35
2023-04-10T05:26:44.395Z,100405.88
2023-04-10T05:31:25.366Z,100379.23
2023-04-10T05:34:00.356Z,100409.48
2023-04-10T05:36:44.140Z,100404.39
2023-04-10T05:39:38.689Z,100406.98
2023-04-10T05:42:25.119Z,100402.99
2023-04-10T05:45:15.370Z,100404.77
2023-04-10T05:48:26.275Z,100410.06
2023-04-10T05:51:13.431Z,100413.50
2023-04-10T05:54:01.096Z,100411.45
2023-04-10T05:56:42.971Z,100409.77
2023-04-10T05:59:40.406Z,100409.76
2023-04-10T06:02:28.405Z,100410.20
2023-04-10T06:04:56.884Z,100412.14
2023-04-10T06:07:25.676Z,100412.81
2023-04-10T06:09:55.461Z,100414.91
2023-04-10T06:12:24.423Z,100420.29
2023-04-10T06:14:54.747Z,100420.71
2023-04-10T06:17:25.912Z,100420.73
2023-04-10T06:19:56.772Z,100425.62
2023-04-10T06:22:32.954Z,100427.92
2023-04-10T06:25:02.382Z,100428.77
2023-04-10T06:27:35.509Z,100425.36
2023-04-10T06:30:09.964Z,100429.89
2023-04-10T06:32:41.136Z,100430.48
2023-04-10T06:35:10.465Z,100433.16
2023-04-10T06:37:40.341Z,100426.48
2023-04-10T06:40:10.152Z,100423.80
2023-04-10T06:42:38.821Z,100427.77
2023-04-10T06:45:23.534Z,100426.73
2023-04-10T06:47:52.526Z,100427.11
2023-04-10T06:50:23.530Z,100426.96
2023-04-10T06:52:53.504Z,100424.14
2023-04-10T06:55:21.834Z,100425.64
2023-04-10T06:58:09.825Z,100429.63
2023-04-10T07:00:38.806Z,100425.27
2023-04-10T07:03:08.281Z,100430.15
2023-04-10T07:05:36.464Z,100433.75
2023-04-10T07:08:04.843Z,100433.65
2023-04-10T07:10:36.479Z,100433.67
2023-04-10T07:13:06.243Z,100429.17
2023-04-10T07:15:42.193Z,100430.10
2023-04-10T07:18:10.336Z,100427.97
2023-04-10T07:20:38.555Z,100427.71
2023-04-10T07:23:12.089Z,100426.04
2023-04-10T07:25:43.323Z,100428.39
2023-04-10T07:28:11.589Z,100432.20
2023-04-10T07:30:39.914Z,100437.90
2023-04-10T07:33:08.392Z,100439.30
2023-04-10T07:35:36.749Z,100443.17
2023-04-10T07:38:07.624Z,100439.33
2023-04-10T07:40:36.042Z,100440.79
2023-04-10T07:43:04.633Z,100439.06
2023-04-10T07:45:33.260Z,100443.14
2023-04-10T07:48:02.914Z,100442.13
2023-04-10T07:50:34.188Z,100440.70
2023-04-10T07:53:07.964Z,100436.59
2023-04-10T07:55:39.683Z,100439.55
2023-04-10T07:58:11.010Z,100439.43
2023-04-10T08:00:39.505Z,100436.25
2023-04-10T08:03:07.940Z,100439.08
2023-04-10T08:05:37.092Z,100443.46
2023-04-10T08:08:05.618Z,100442.99
2023-04-10T08:10:37.797Z,100442.76
2023-04-10T08:13:06.738Z,100442.51
2023-04-10T08:15:35.717Z,100447.89
2023-04-10T08:18:09.635Z,100448.82
2023-04-10T08:20:40.417Z,100450.09
2023-04-10T08:23:19.811Z,100451.84
2023-04-10T08:25:49.369Z,100455.77
2023-04-10T08:28:17.749Z,100460.63
2023-04-10T08:30:45.809Z,100458.67
2023-04-10T08:33:14.911Z,100462.40
2023-04-10T08:35:43.376Z,100466.02
2023-04-10T08:38:14.087Z,100463.92
2023-04-10T08:40:44.778Z,100462.77
2023-04-10T08:43:14.719Z,100462.17
2023-04-10T08:45:43.688Z,100469.02
2023-04-10T08:48:11.874Z,100466.26
2023-04-10T08:50:44.019Z,100464.68
2023-04-10T08:53:13.775Z,100467.48
2023-04-10T08:55:45.000Z,100468.50
2023-04-10T08:58:14.010Z,100470.73
2023-04-10T09:00:42.781Z,100471.02
2023-04-10T09:03:14.353Z,100472.29
2023-04-10T09:05:42.790Z,100474.35
2023-04-10T09:08:14.184Z,100476.27
2023-04-10T09:10:43.975Z,100479.61
2023-04-10T09:13:12.859Z,100484.23
2023-04-10T09:15:59.925Z,100481.98
2023-04-10T09:18:51.271Z,100480.98
2023-04-10T09:21:20.342Z,100479.06
2023-04-10T09:23:49.093Z,100482.17
2023-04-10T09:26:33.563Z,100480.91
2023-04-10T09:29:03.339Z,100481.25
2023-04-10T09:31:38.740Z,100483.39
2023-04-10T09:34:08.416Z,100483.70
2023-04-10T09:36:38.059Z,100486.57
2023-04-10T09:39:09.100Z,100489.89
2023-04-10T09:41:57.456Z,100489.40
2023-04-10T09:44:34.006Z,100490.23
2023-04-10T09:47:13.684Z,100485.64
2023-04-10T09:49:50.270Z,100487.16
2023-04-10T09:52:33.387Z,100483.05
2023-04-10T09:55:09.704Z,100479.43
2023-04-10T09:57:38.275Z,100472.09
2023-04-10T10:00:10.779Z,100476.56
2023-04-10T10:02:40.196Z,100473.62
2023-04-10T10:05:09.928Z,100472.05
2023-04-10T10:07:42.115Z,100472.34
2023-04-10T10:10:12.196Z,100469.10
2023-04-10T10:12:46.039Z,100468.36
2023-04-10T10:15:23.565Z,100467.64
2023-04-10T10:18:22.822Z,100466.11
2023-04-10T10:20:51.187Z,100462.73
2023-04-10T10:23:26.528Z,100457.85
2023-04-10T10:25:56.154Z,100462.12
2023-04-10T10:28:25.225Z,100456.21
2023-04-10T10:30:53.769Z,100452.39
2023-04-10T10:33:23.312Z,100451.02
2023-04-10T10:35:52.592Z,100443.79
2023-04-10T10:38:27.323Z,100438.08
2023-04-10T10:41:08.349Z,100436.08
2023-04-10T10:43:44.328Z,100430.53
2023-04-10T10:46:19.113Z,100420.98
2023-04-10T10:49:00.623Z,100411.66
2023-04-10T10:51:48.167Z,100404.02
2023-04-10T10:54:32.533Z,100400.73
2023-04-10T10:57:09.262Z,100389.40
2023-04-10T10:59:43.723Z,100382.11
2023-04-10T11:02:17.427Z,100379.13
2023-04-10T11:04:47.033Z,100374.11
2023-04-10T11:07:16.103Z,100368.44
2023-04-10T11:09:53.832Z,100364.99
2023-04-10T11:12:23.508Z,100361.60
2023-04-10T11:15:17.858Z,100355.85
2023-04-10T11:17:55.733Z,100348.30
2023-04-10T11:20:27.515Z,100348.59
2023-04-10T11:23:10.235Z,100342.89
2023-04-10T11:25:52.705Z,100334.87
2023-04-10T11:28:41.013Z,100330.27
2023-04-10T11:31:22.256Z,100327.19
2023-04-10T11:34:02.064Z,100322.77
2023-04-10T11:36:30.677Z,100316.05
2023-04-10T11:39:02.978Z,100315.33
2023-04-10T11:41:32.530Z,100300.68
2023-04-10T11:44:01.781Z,100300.63
2023-04-10T11:46:30.891Z,100293.11
2023-04-10T11:49:03.598Z,100287.25
2023-04-10T11:51:32.646Z,100286.88
2023-04-10T11:54:18.070Z,100284.89
2023-04-10T11:56:58.038Z,100283.06
2023-04-10T11:59:26.841Z,100285.14
2023-04-10T12:02:14.658Z,100282.59
2023-04-10T12:04:44.288Z,100282.38
2023-04-10T12:07:14.793Z,100271.56
2023-04-10T12:09:43.554Z,100268.32
2023-04-10T12:12:12.632Z,100265.50
2023-04-10T12:14:42.413Z,100267.02
2023-04-10T12:17:11.806Z,100265.10
2023-04-10T12:19:53.519Z,100262.01
2023-04-10T12:22:22.067Z,100256.34
2023-04-10T12:24:53.682Z,100254.60
2023-04-10T12:27:22.873Z,100254.94
2023-04-10T12:29:52.451Z,100255.25
2023-04-10T12:32:20.794Z,100256.05
2023-04-10T12:34:53.106Z,100266.18
2023-04-10T12:37:26.737Z,100267.80
2023-04-10T12:40:09.769Z,100272.73
2023-04-10T12:42:40.541Z,100280.71
2023-04-10T12:45:09.973Z,100292.17
2023-04-10T12:47:47.011Z,100296.13
2023-04-10T12:50:19.239Z,100301.65
2023-04-10T12:53:07.881Z,100294.05
2023-04-10T12:55:36.298Z,100291.75
2023-04-10T12:58:18.127Z,100286.82
2023-04-10T13:00:47.873Z,100283.27
2023-04-10T13:03:16.696Z,100281.63
2023-04-10T13:05:46.202Z,100277.75
2023-04-10T13:08:14.880Z,100273.23
2023-04-10T13:10:43.687Z,100270.59
2023-04-10T13:13:14.233Z,100262.67
2023-04-10T13:15:43.338Z,100261.05
2023-04-10T13:18:11.733Z,100255.34
2023-04-10T13:20:41.145Z,100254.70
2023-04-10T13:23:10.484Z,100262.89
2023-04-10T13:25:40.067Z,100274.48
2023-04-10T13:28:11.340Z,100282.05
2023-04-10T13:30:40.711Z,100290.32
2023-04-10T13:33:09.946Z,100293.55
2023-04-10T13:35:41.047Z,100299.33
2023-04-10T13:38:12.161Z,100298.05
2023-04-10T13:40:43.953Z,100296.52
2023-04-10T13:43:13.447Z,100291.62
2023-04-10T13:45:41.591Z,100284.48
2023-04-10T13:48:11.398Z,100276.55
2023-04-10T13:50:39.620Z,100273.83
2023-04-10T13:53:15.128Z,100274.98
2023-04-10T13:55:47.761Z,100278.25
2023-04-10T13:58:17.565Z,100278.02
2023-04-10T14:00:46.086Z,100282.66
2023-04-10T14:03:15.391Z,100279.10
2023-04-10T14:05:44.936Z,100277.66
2023-04-10T14:08:15.901Z,100276.29
2023-04-10T14:10:44.234Z,100273.31
2023-04-10T14:13:12.688Z,100271.20
2023-04-10T14:15:42.153Z,100269.16
2023-04-10T14:18:10.503Z,100269.90
2023-04-10T14:20:39.114Z,100269.80
2023-04-10T14:23:09.135Z,100270.56
2023-04-10T14:25:37.415Z,100264.22
2023-04-10T14:28:05.701Z,100263.16
2023-04-10T14:30:33.975Z,100253.45
2023-04-10T14:33:02.235Z,100252.13
2023-04-10T14:35:32.209Z,100246.04
2023-04-10T14:38:00.873Z,100243.34
2023-04-10T14:40:29.104Z,100230.51
2023-04-10T14:42:57.514Z,100228.11
2023-04-10T14:45:32.593Z,100225.29
2023-04-10T14:48:02.452Z,100222.23
2023-04-10T14:50:33.768Z,100219.73
2023-04-10T14:53:02.492Z,100215.80
2023-04-10T14:55:30.795Z,100205.70
2023-04-10T14:58:06.874Z,100200.55
2023-04-10T15:00:35.500Z,100203.02
2023-04-10T15:03:07.465Z,100196.31
2023-04-10T15:05:35.782Z,100188.61
2023-04-10T15:08:04.445Z,100188.38
2023-04-10T15:10:33.791Z,100189.27
2023-04-10T15:13:03.400Z,100182.43
2023-04-10T15:15:31.873Z,100173.50
2023-04-10T15:18:00.136Z,100170.45
2023-04-10T15:20:28.537Z,100165.80
2023-04-10T15:22:58.569Z,100156.49
2023-04-10T15:25:26.669Z,100150.29
2023-04-10T15:27:56.781Z,100145.94
2023-04-10T15:30:25.045Z,100141.92
2023-04-10T15:32:55.728Z,100138.87
2023-04-10T15:35:26.466Z,100126.83
2023-04-10T15:37:54.742Z,100120.98
2023-04-10T15:40:23.592Z,100117.60
2023-04-10T15:42:53.034Z,100113.93
2023-04-10T15:45:21.776Z,100112.67
2023-04-10T15:47:49.985Z,100110.68
2023-04-10T15:50:22.363Z,100107.77
2023-04-10T15:52:51.280Z,100116.35
2023-04-10T15:55:19.407Z,100113.89
2023-04-10T15:57:50.781Z,100115.52
2023-04-10T16:00:19.363Z,100116.92
2023-04-10T16:02:47.803Z,100119.17
2023-04-10T16:05:16.233Z,100122.25
2023-04-10T16:07:46.434Z,100122.98
2023-04-10T16:10:14.801Z,100121.56
2023-04-10T16:12:48.651Z,100127.90
2023-04-10T16:15:18.411Z,100132.04
2023-04-10T16:17:46.694Z,100132.30
2023-04-10T16:20:20.060Z,100134.09
2023-04-10T16:22:49.418Z,100137.61
2023-04-10T16:25:19.553Z,100141.91
2023-04-10T16:27:50.742Z,100141.13
2023-04-10T16:30:19.566Z,100144.27
2023-04-10T16:32:54.739Z,100147.14
2023-04-10T16:35:23.161Z,100152.83
2023-04-10T16:37:52.572Z,100153.52
2023-04-10T16:40:22.819Z,100154.48
2023-04-10T16:42:51.254Z,100152.39
2023-04-10T16:45:20.426Z,100155.26
2023-04-10T16:47:49.143Z,100153.37
2023-04-10T16:50:17.538Z,100154.77
2023-04-10T16:52:45.729Z,100158.09
2023-04-10T16:55:13.943Z,100161.88
2023-04-10T16:57:42.823Z,100163.73
2023-04-10T17:00:15.612Z,100170.29
2023-04-10T17:02:45.257Z,100166.37
2023-04-10T17:05:13.768Z,100175.04
2023-04-10T17:07:45.097Z,100174.15
2023-04-10T17:10:13.962Z,100175.79
2023-04-10T17:12:43.919Z,100180.62
2023-04-10T17:15:21.612Z,100185.52
2023-04-10T17:18:07.991Z,100186.05
2023-04-10T17:20:37.911Z,100189.64
2023-04-10T17:23:06.610Z,100197.65
2023-04-10T17:25:39.362Z,100200.93
2023-04-10T17:28:09.068Z,100203.23
2023-04-10T17:30:37.382Z,100207.56
2023-04-10T17:33:05.831Z,100210.54
2023-04-10T17:35:35.060Z,100216.73
2023-04-10T17:38:03.466Z,100219.98
2023-04-10T17:40:34.044Z,100220.66
2023-04-10T17:43:02.837Z,100223.35
2023-04-10T17:47:59.839Z,100219.86
2023-04-10T17:50:29.548Z,100226.38
2023-04-10T17:52:57.794Z,100231.84
2023-04-10T17:55:26.965Z,100231.30
2023-04-10T17:57:58.710Z,100235.93
2023-04-10T18:00:30.234Z,100233.06
2023-04-10T18:03:01.020Z,100242.19
2023-04-10T18:05:34.904Z,100243.19
2023-04-10T18:08:03.155Z,100244.05
2023-04-10T18:10:32.240Z,100250.23
2023-04-10T18:13:00.869Z,100250.95
2023-04-10T18:15:32.089Z,100252.48
2023-04-10T18:18:00.973Z,100253.95
2023-04-10T18:20:29.406Z,100258.58
2023-04-10T18:22:57.570Z,100260.75
2023-04-10T18:25:26.285Z,100258.68
2023-04-10T18:30:33.214Z,100263.48
2023-04-10T18:33:04.566Z,100264.55
2023-04-10T18:35:34.121Z,100267.66
2023-04-10T18:38:03.394Z,100268.86
2023-04-10T18:40:39.397Z,100266.69
2023-04-10T18:43:08.051Z,100265.89
2023-04-10T18:45:36.571Z,100264.05
2023-04-10T18:48:05.797Z,100263.02
2023-04-10T18:50:36.844Z,100261.61
2023-04-10T18:53:11.094Z,100260.88
2023-04-10T18:55:39.971Z,100264.71
2023-04-10T18:58:08.268Z,100261.13
2023-04-10T19:00:38.253Z,100264.11
2023-04-10T19:03:07.928Z,100264.91
2023-04-10T19:05:39.328Z,100264.47
2023-04-10T19:08:08.168Z,100265.74
2023-04-10T19:10:37.473Z,100270.96
2023-04-10T19:13:12.217Z,100273.02
2023-04-10T19:15:46.028Z,100270.80
2023-04-10T19:18:16.453Z,100271.60
2023-04-10T19:20:50.675Z,100270.11
2023-04-10T19:23:22.449Z,100267.66
2023-04-10T19:25:55.454Z,100270.45
2023-04-10T19:28:26.290Z,100266.69
2023-04-10T19:31:14.325Z,100273.60
2023-04-10T19:33:42.506Z,100268.91
2023-04-10T19:36:15.613Z,100271.08
2023-04-10T19:38:48.592Z,100265.91
2023-04-10T19:41:18.160Z,100268.92
2023-04-10T19:43:47.348Z,100262.14
2023-04-10T19:46:22.518Z,100263.10
2023-04-10T19:48:52.207Z,100266.13
2023-04-10T19:51:21.083Z,100267.30
2023-04-10T19:53:51.691Z,100272.02
2023-04-10T19:56:20.541Z,100270.27
2023-04-10T19:58:51.389Z,100264.59
2023-04-10T20:01:20.186Z,100263.02
2023-04-10T20:03:50.250Z,100254.48
2023-04-10T20:06:21.526Z,100255.35
2023-04-10T20:08:50.016Z,100259.30
2023-04-10T20:11:18.285Z,100251.34
2023-04-10T20:13:50.245Z,100255.67
2023-04-10T20:16:20.511Z,100251.00
2023-04-10T20:18:49.386Z,100248.92
2023-04-10T20:21:18.658Z,100253.14
2023-04-10T20:23:48.150Z,100251.95
2023-04-10T20:26:17.276Z,100251.23
2023-04-10T20:28:45.465Z,100252.00
2023-04-10T20:31:16.364Z,100246.38
2023-04-10T20:33:44.722Z,100246.34
2023-04-10T20:36:13.574Z,100244.63
2023-04-10T20:38:41.801Z,100244.03
2023-04-10T20:41:10.271Z,100245.85
2023-04-10T20:43:39.037Z,100245.48
2023-04-10T20:46:10.332Z,100242.95
2023-04-10T20:48:38.842Z,100232.84
2023-04-10T20:51:09.200Z,100226.78
2023-04-10T20:53:38.483Z,100226.79
2023-04-10T20:56:08.426Z,100224.70
2023-04-10T20:58:36.734Z,100218.95
2023-04-10T21:01:09.886Z,100215.85
2023-04-10T21:03:40.262Z,100212.13
2023-04-10T21:06:09.825Z,100208.55
2023-04-10T21:08:38.918Z,100207.77
2023-04-10T21:11:07.337Z,100204.19
2023-04-10T21:13:38.308Z,100205.99
2023-04-10T21:16:07.315Z,100202.05
2023-04-10T21:18:36.061Z,100207.19
2023-04-10T21:21:08.509Z,100203.06
2023-04-10T21:23:36.978Z,100206.03
2023-04-10T21:26:05.204Z,100203.64
2023-04-10T21:28:35.359Z,100202.90
2023-04-10T21:31:03.768Z,100195.64
2023-04-10T21:33:32.658Z,100194.02
2023-04-10T21:36:01.044Z,100185.91
2023-04-10T21:38:29.895Z,100186.77
2023-04-10T21:40:58.265Z,100184.20
2023-04-10T21:43:27.198Z,100182.79
2023-04-10T21:45:55.509Z,100181.88
2023-04-10T21:48:23.754Z,100179.29
2023-04-10T21:50:52.933Z,100176.19
2023-04-10T21:53:22.983Z,100170.05
2023-04-10T21:55:52.353Z,100167.08
2023-04-10T21:58:24.842Z,100161.98
2023-04-10T22:00:54.563Z,100160.52
2023-04-10T22:03:24.260Z,100160.01
2023-04-10T22:05:53.742Z,100160.09
2023-04-10T22:08:22.344Z,100166.80
2023-04-10T22:10:51.080Z,100159.74
2023-04-10T22:13:30.194Z,100153.56
2023-04-10T22:16:02.108Z,100152.38
2023-04-10T22:18:31.417Z,100149.98
2023-04-10T22:21:10.108Z,100145.44
2023-04-10T22:23:38.326Z,100141.36
2023-04-10T22:26:06.917Z,100142.02
2023-04-10T22:28:36.698Z,100141.34
2023-04-10T22:31:05.001Z,100140.94
2023-04-10T22:33:33.550Z,100135.23
2023-04-10T22:36:02.214Z,100139.40
2023-04-10T22:38:30.931Z,100137.06
2023-04-10T22:40:59.140Z,100132.42
2023-04-10T22:43:27.270Z,100134.80
2023-04-10T22:45:55.530Z,100129.93
2023-04-10T22:48:25.270Z,100128.29
2023-04-10T22:50:53.461Z,100127.36
2023-04-10T22:53:23.993Z,100128.46
2023-04-10T22:55:52.140Z,100130.78
2023-04-10T22:58:22.900Z,100129.42
2023-04-10T23:00:52.019Z,100128.17
2023-04-10T23:03:20.459Z,100129.16
2023-04-10T23:05:51.076Z,100128.88
2023-04-10T23:08:19.580Z,100126.79
2023-04-10T23:10:47.717Z,100125.16
2023-04-10T23:13:19.016Z,100120.73
2023-04-10T23:15:51.969Z,100118.98
2023-04-10T23:18:20.723Z,100121.39
2023-04-10T23:20:51.114Z,100123.08
2023-04-10T23:23:20.406Z,100118.09
2023-04-10T23:25:57.792Z,100114.23
2023-04-10T23:28:26.550Z,100117.05
2023-04-10T23:30:55.257Z,100114.98
2023-04-10T23:33:23.729Z,100114.42
2023-04-10T23:35:52.151Z,100108.27
2023-04-10T23:38:22.384Z,100108.71
2023-04-10T23:40:52.605Z,100107.70
2023-04-10T23:43:21.204Z,100105.73
2023-04-10T23:45:49.345Z,100101.94
2023-04-10T23:48:20.138Z,100098.08
2023-04-10T23:50:48.880Z,100093.41
2023-04-10T23:53:17.211Z,100092.84
2023-04-10T23:55:47.341Z,100094.75
2023-04-10T23:58:15.505Z,100088.92
